Terminal Aerodrome Forecast
Issued by NWS

Home | Current Version | Previous Version | Text Only | Print | Product List | Glossary On
Versions: 1 2 3 4 5 6 7 8 9 10 11 12 13 14 15 16 17 18 19
512
FTUS45 KRIW 271133
TAFCPR
TAF
KCPR 271133Z 2712/2812 23008KT P6SM VCSH SCT030 BKN050
      TEMPO 2712/2714 BKN030
     FM271800 23012G18KT 5SM -RA OVC025
     FM272200 33010G20KT 3SM -RASN OVC015
     FM280100 36012KT 1SM -SN OVC009=

USA.gov is the U.S. government's official web portal to all federal, state and local government web resources and services.